Time;durP1;ratioP1;P1;durP2;ratioP2;P2;SDS_P1;SDS_P2;PMS_P1;PMS_P2;Temp;Humidity;BMP_temperature;BMP_pressure;BME280_temperature;BME280_humidity;BME280_pressure;Samples;Min_cycle;Max_cycle;Signal;HPM_P1;HPM_P2
2021/08/03 00:00:49;;;;;;;;;;;23.70;53.70;;;;;;492636;241;1491;-70
2021/08/03 00:02:50;;;;;;;;;;;23.70;53.80;;;;;;492676;241;2191;-69
2021/08/03 00:04:51;;;;;;;;;;;23.70;53.90;;;;;;492783;241;1068;-69
2021/08/03 00:06:53;;;;;;;;;;;23.70;53.90;;;;;;492610;241;1320;-69
2021/08/03 00:08:54;;;;;;;;;;;23.70;53.70;;;;;;492672;241;1234;-69
2021/08/03 00:10:55;;;;;;;;;;;23.70;53.70;;;;;;492604;241;1272;-69
2021/08/03 00:12:57;;;;;;;;;;;23.70;53.90;;;;;;492726;241;1104;-69
2021/08/03 00:14:58;;;;;;;;;;;23.70;53.90;;;;;;492673;241;1048;-69
2021/08/03 00:16:59;;;;;;;;;;;23.80;53.70;;;;;;492647;241;1200;-69
2021/08/03 00:19:01;;;;;;;;;;;23.70;53.70;;;;;;492700;241;1062;-69
2021/08/03 00:21:02;;;;;;;;;;;23.80;53.80;;;;;;492726;241;1293;-69
2021/08/03 00:23:03;;;;;;;;;;;23.70;53.90;;;;;;492623;241;2137;-69
2021/08/03 00:25:05;;;;;;;;;;;23.70;53.90;;;;;;492751;241;1209;-69
2021/08/03 00:27:06;;;;;;;;;;;23.70;53.90;;;;;;492703;241;1091;-69
2021/08/03 00:29:07;;;;;;;;;;;23.60;54.00;;;;;;492670;241;1159;-69
2021/08/03 00:31:08;;;;;;;;;;;23.70;53.80;;;;;;492705;238;1239;-69
2021/08/03 00:33:10;;;;;;;;;;;23.70;53.80;;;;;;492680;241;1053;-69
2021/08/03 00:35:11;;;;;;;;;;;23.70;53.80;;;;;;492735;241;1052;-69
2021/08/03 00:37:12;;;;;;;;;;;23.70;53.90;;;;;;492569;241;1238;-69
2021/08/03 00:39:14;;;;;;;;;;;23.80;53.80;;;;;;492674;241;1196;-69
2021/08/03 00:41:15;;;;;;;;;;;23.70;53.60;;;;;;492814;241;1054;-69
2021/08/03 00:43:16;;;;;;;;;;;23.70;53.80;;;;;;492692;241;2191;-69
2021/08/03 00:45:18;;;;;;;;;;;23.70;53.90;;;;;;492707;241;1049;-69
2021/08/03 00:47:19;;;;;;;;;;;23.70;53.70;;;;;;492576;241;1095;-69
2021/08/03 00:49:20;;;;;;;;;;;23.70;53.70;;;;;;492646;241;1108;-70
2021/08/03 00:51:22;;;;;;;;;;;23.70;53.80;;;;;;492571;241;1093;-69
2021/08/03 00:53:23;;;;;;;;;;;24.00;53.40;;;;;;492688;241;1098;-69
2021/08/03 00:55:24;;;;;;;;;;;24.00;52.90;;;;;;492746;241;1149;-69
2021/08/03 00:57:26;;;;;;;;;;;23.90;53.20;;;;;;492746;241;1121;-69
2021/08/03 00:59:27;;;;;;;;;;;23.80;53.30;;;;;;492741;241;1156;-69
2021/08/03 01:01:28;;;;;;;;;;;23.80;53.40;;;;;;492673;241;1087;-69
2021/08/03 01:03:30;;;;;;;;;;;23.80;53.50;;;;;;492599;241;2199;-69
2021/08/03 01:05:31;;;;;;;;;;;23.70;53.60;;;;;;492731;241;1100;-69
2021/08/03 01:07:32;;;;;;;;;;;23.70;53.70;;;;;;492603;241;1079;-70
2021/08/03 01:09:34;;;;;;;;;;;23.60;53.70;;;;;;492704;241;1111;-69
2021/08/03 01:11:35;;;;;;;;;;;23.60;53.90;;;;;;492863;241;1305;-69
2021/08/03 01:13:36;;;;;;;;;;;23.70;53.60;;;;;;492671;241;1189;-69
2021/08/03 01:15:38;;;;;;;;;;;23.70;53.50;;;;;;492887;241;1041;-69
2021/08/03 01:17:39;;;;;;;;;;;23.70;53.60;;;;;;492651;241;1086;-69
2021/08/03 01:19:42;;;;;;;;;;;23.60;53.50;;;;;;492720;241;1103;-69
2021/08/03 01:21:41;;;;;;;;;;;23.70;53.60;;;;;;492573;242;1571;-69
2021/08/03 01:23:43;;;;;;;;;;;23.70;53.60;;;;;;492655;241;2199;-69
2021/08/03 01:25:44;;;;;;;;;;;23.60;53.60;;;;;;492575;241;1152;-69
2021/08/03 01:27:45;;;;;;;;;;;23.70;53.60;;;;;;492654;241;1108;-69
2021/08/03 01:29:47;;;;;;;;;;;23.60;53.60;;;;;;492718;241;1050;-69
2021/08/03 01:31:48;;;;;;;;;;;23.70;53.60;;;;;;492756;241;1089;-69
2021/08/03 01:33:49;;;;;;;;;;;23.70;53.60;;;;;;492745;241;1065;-69
2021/08/03 01:35:51;;;;;;;;;;;23.70;53.60;;;;;;492687;241;1067;-69
2021/08/03 01:37:52;;;;;;;;;;;23.70;53.40;;;;;;492616;241;1190;-69
2021/08/03 01:39:53;;;;;;;;;;;23.70;53.50;;;;;;492703;241;1312;-69
2021/08/03 01:41:55;;;;;;;;;;;23.70;53.50;;;;;;492746;241;1090;-69
2021/08/03 01:43:56;;;;;;;;;;;23.70;53.40;;;;;;492771;241;2203;-69
2021/08/03 01:45:57;;;;;;;;;;;23.70;53.50;;;;;;492990;241;1100;-69
2021/08/03 01:47:59;;;;;;;;;;;23.70;53.40;;;;;;492607;241;1095;-69
2021/08/03 01:50:00;;;;;;;;;;;23.60;53.50;;;;;;492711;241;1153;-69
2021/08/03 01:52:01;;;;;;;;;;;23.60;53.50;;;;;;492599;241;1089;-69
2021/08/03 01:54:03;;;;;;;;;;;23.70;53.50;;;;;;492712;241;1204;-69
2021/08/03 01:56:04;;;;;;;;;;;23.60;53.40;;;;;;492781;241;1142;-69
2021/08/03 01:58:05;;;;;;;;;;;23.60;53.40;;;;;;492761;241;1083;-69
2021/08/03 02:00:07;;;;;;;;;;;23.60;53.40;;;;;;492836;241;1149;-69
2021/08/03 02:02:08;;;;;;;;;;;23.70;53.30;;;;;;492577;241;1310;-69
2021/08/03 02:04:10;;;;;;;;;;;23.70;53.20;;;;;;492700;241;2247;-69
2021/08/03 02:06:11;;;;;;;;;;;23.70;53.30;;;;;;492720;241;1326;-69
2021/08/03 02:08:12;;;;;;;;;;;23.70;53.20;;;;;;492861;241;1081;-69
2021/08/03 02:10:14;;;;;;;;;;;23.60;53.40;;;;;;492729;241;1128;-69
2021/08/03 02:12:15;;;;;;;;;;;23.60;53.30;;;;;;492663;241;1163;-69
2021/08/03 02:14:16;;;;;;;;;;;23.60;53.40;;;;;;492673;241;1071;-69
2021/08/03 02:16:18;;;;;;;;;;;23.70;53.30;;;;;;492701;241;1037;-69
2021/08/03 02:18:19;;;;;;;;;;;23.70;53.20;;;;;;492646;241;1124;-70
2021/08/03 02:20:20;;;;;;;;;;;23.60;53.30;;;;;;492698;241;1005;-69
2021/08/03 02:22:21;;;;;;;;;;;23.60;53.30;;;;;;492640;241;1073;-69
2021/08/03 02:24:23;;;;;;;;;;;23.70;53.40;;;;;;492744;241;2187;-69
2021/08/03 02:26:24;;;;;;;;;;;23.60;53.50;;;;;;492746;241;1147;-69
2021/08/03 02:28:25;;;;;;;;;;;23.60;53.40;;;;;;492682;241;1063;-69
2021/08/03 02:30:27;;;;;;;;;;;23.60;53.20;;;;;;492808;241;1055;-69
2021/08/03 02:32:28;;;;;;;;;;;23.60;53.30;;;;;;492757;241;1068;-69
2021/08/03 02:34:29;;;;;;;;;;;23.70;53.10;;;;;;492814;241;1047;-69
2021/08/03 02:36:31;;;;;;;;;;;23.60;53.10;;;;;;492805;241;1077;-69
2021/08/03 02:38:32;;;;;;;;;;;23.60;53.20;;;;;;492629;241;1399;-69
2021/08/03 02:40:33;;;;;;;;;;;23.70;53.20;;;;;;492664;241;1382;-69
2021/08/03 02:42:35;;;;;;;;;;;23.60;53.20;;;;;;492721;241;2192;-69
2021/08/03 02:44:36;;;;;;;;;;;23.60;53.20;;;;;;492675;241;1222;-69
2021/08/03 02:46:39;;;;;;;;;;;23.60;53.20;;;;;;492599;241;1063;-69
2021/08/03 02:48:39;;;;;;;;;;;23.70;53.10;;;;;;492508;241;1366;-69
2021/08/03 02:50:40;;;;;;;;;;;23.60;53.10;;;;;;492682;241;1424;-69
2021/08/03 02:52:41;;;;;;;;;;;23.70;53.00;;;;;;492584;241;1057;-69
2021/08/03 02:54:43;;;;;;;;;;;23.60;53.10;;;;;;492720;241;1200;-69
2021/08/03 02:56:44;;;;;;;;;;;23.60;53.10;;;;;;492698;241;1170;-69
2021/08/03 02:58:45;;;;;;;;;;;23.60;53.10;;;;;;492764;241;1081;-69
2021/08/03 03:00:47;;;;;;;;;;;23.60;52.90;;;;;;492699;241;1150;-70
2021/08/03 03:02:48;;;;;;;;;;;23.70;52.80;;;;;;492593;241;2187;-69
2021/08/03 03:04:49;;;;;;;;;;;23.60;52.80;;;;;;492745;241;1046;-69
2021/08/03 03:06:51;;;;;;;;;;;23.60;52.80;;;;;;492745;241;1058;-69
2021/08/03 03:08:52;;;;;;;;;;;23.50;53.00;;;;;;492731;241;1092;-69
2021/08/03 03:10:53;;;;;;;;;;;23.60;53.00;;;;;;492713;241;1154;-69
2021/08/03 03:12:55;;;;;;;;;;;23.50;53.00;;;;;;492652;241;1092;-69
2021/08/03 03:14:56;;;;;;;;;;;23.50;52.80;;;;;;492700;241;1049;-69
2021/08/03 03:16:57;;;;;;;;;;;23.60;52.80;;;;;;492719;241;1078;-69
2021/08/03 03:18:58;;;;;;;;;;;23.50;52.70;;;;;;492716;241;1105;-69
2021/08/03 03:21:00;;;;;;;;;;;23.60;52.80;;;;;;492781;241;1073;-69
2021/08/03 03:23:01;;;;;;;;;;;23.50;52.80;;;;;;492818;241;2179;-69
2021/08/03 03:25:02;;;;;;;;;;;23.50;52.80;;;;;;492747;241;1057;-69
2021/08/03 03:27:04;;;;;;;;;;;23.50;52.80;;;;;;492669;241;1168;-69
2021/08/03 03:29:05;;;;;;;;;;;23.60;52.70;;;;;;492709;241;1086;-69
2021/08/03 03:31:06;;;;;;;;;;;23.60;52.50;;;;;;492674;241;1092;-69
2021/08/03 03:33:08;;;;;;;;;;;23.50;52.50;;;;;;492607;241;1355;-69
2021/08/03 03:35:09;;;;;;;;;;;23.60;52.50;;;;;;492674;241;1088;-69
2021/08/03 03:37:10;;;;;;;;;;;23.60;52.50;;;;;;492637;241;1054;-70
2021/08/03 03:39:12;;;;;;;;;;;23.50;52.80;;;;;;492689;241;1072;-69
2021/08/03 03:41:13;;;;;;;;;;;23.50;52.70;;;;;;492663;241;1144;-69
2021/08/03 03:43:14;;;;;;;;;;;23.60;52.50;;;;;;492749;241;2190;-69
2021/08/03 03:45:16;;;;;;;;;;;23.50;52.60;;;;;;492735;241;1085;-69
2021/08/03 03:47:17;;;;;;;;;;;23.50;52.70;;;;;;492727;241;1173;-69
2021/08/03 03:49:18;;;;;;;;;;;23.50;52.60;;;;;;492787;241;1174;-69
2021/08/03 03:51:20;;;;;;;;;;;23.60;52.50;;;;;;492518;241;1251;-69
2021/08/03 03:53:21;;;;;;;;;;;23.50;52.50;;;;;;492698;241;1109;-69
2021/08/03 03:55:22;;;;;;;;;;;23.60;52.50;;;;;;492690;241;1131;-69
2021/08/03 03:57:24;;;;;;;;;;;23.60;52.40;;;;;;492651;241;1182;-69
2021/08/03 03:59:26;;;;;;;;;;;23.60;52.50;;;;;;492741;241;1232;-69
2021/08/03 04:01:26;;;;;;;;;;;23.50;52.50;;;;;;492628;241;1337;-70
2021/08/03 04:03:28;;;;;;;;;;;23.50;52.50;;;;;;492666;241;2183;-69
2021/08/03 04:05:29;;;;;;;;;;;23.60;52.40;;;;;;492691;241;1039;-69
2021/08/03 04:07:31;;;;;;;;;;;23.50;52.50;;;;;;492695;241;1069;-69
2021/08/03 04:09:32;;;;;;;;;;;23.50;52.50;;;;;;492734;241;1025;-69
2021/08/03 04:11:33;;;;;;;;;;;23.50;52.40;;;;;;492799;241;1167;-69
2021/08/03 04:13:34;;;;;;;;;;;23.40;52.40;;;;;;492626;241;1137;-69
2021/08/03 04:15:36;;;;;;;;;;;23.50;52.30;;;;;;492787;241;1079;-69
2021/08/03 04:17:37;;;;;;;;;;;23.70;52.00;;;;;;492824;241;1060;-69
2021/08/03 04:19:38;;;;;;;;;;;23.50;52.10;;;;;;492709;241;1254;-69
2021/08/03 04:21:40;;;;;;;;;;;23.50;52.30;;;;;;492648;241;1102;-69
2021/08/03 04:23:41;;;;;;;;;;;23.50;52.20;;;;;;492669;241;2183;-69
2021/08/03 04:25:42;;;;;;;;;;;23.50;52.30;;;;;;492701;241;1060;-69
2021/08/03 04:27:44;;;;;;;;;;;23.40;52.40;;;;;;492599;241;1207;-69
2021/08/03 04:29:45;;;;;;;;;;;23.50;52.30;;;;;;492643;241;1093;-69
2021/08/03 04:31:46;;;;;;;;;;;23.40;52.30;;;;;;492601;241;1090;-69
2021/08/03 04:33:50;;;;;;;;;;;23.50;52.30;;;;;;492619;241;1110;-69
2021/08/03 04:35:49;;;;;;;;;;;23.40;52.40;;;;;;492368;242;1197;-69
2021/08/03 04:37:50;;;;;;;;;;;23.40;52.30;;;;;;492495;241;1046;-69
2021/08/03 04:39:52;;;;;;;;;;;23.50;52.30;;;;;;492567;241;1110;-69
2021/08/03 04:41:53;;;;;;;;;;;23.60;52.20;;;;;;492642;241;1162;-69
2021/08/03 04:43:54;;;;;;;;;;;23.40;52.30;;;;;;492579;241;2199;-69
2021/08/03 04:45:56;;;;;;;;;;;23.50;52.30;;;;;;492567;241;1066;-69
2021/08/03 04:47:57;;;;;;;;;;;23.40;52.20;;;;;;492543;241;1069;-69
2021/08/03 04:49:58;;;;;;;;;;;23.50;52.50;;;;;;492491;241;1032;-69
2021/08/03 04:52:00;;;;;;;;;;;23.50;52.40;;;;;;492422;241;1077;-69
2021/08/03 04:54:01;;;;;;;;;;;23.40;52.30;;;;;;492491;241;1261;-69
2021/08/03 04:56:03;;;;;;;;;;;23.50;52.30;;;;;;492458;241;1091;-69
2021/08/03 04:58:04;;;;;;;;;;;23.40;52.40;;;;;;492530;241;1167;-69
2021/08/03 05:00:05;;;;;;;;;;;23.50;52.20;;;;;;492436;241;1182;-69
2021/08/03 05:02:07;;;;;;;;;;;23.40;52.30;;;;;;492319;241;1116;-69
2021/08/03 05:04:08;;;;;;;;;;;23.40;52.30;;;;;;492507;241;2149;-69
2021/08/03 05:06:09;;;;;;;;;;;23.40;52.40;;;;;;492605;241;1049;-69
2021/08/03 05:08:10;;;;;;;;;;;23.40;52.30;;;;;;492501;241;1208;-69
2021/08/03 05:10:13;;;;;;;;;;;23.40;52.40;;;;;;492526;241;1066;-69
2021/08/03 05:12:13;;;;;;;;;;;23.40;52.40;;;;;;492322;242;1537;-69
2021/08/03 05:14:14;;;;;;;;;;;23.40;52.40;;;;;;492369;241;1073;-69
2021/08/03 05:16:16;;;;;;;;;;;23.40;52.40;;;;;;492311;241;1118;-69
2021/08/03 05:18:17;;;;;;;;;;;23.50;52.40;;;;;;492433;241;1306;-69
2021/08/03 05:20:18;;;;;;;;;;;23.40;52.40;;;;;;492487;241;1088;-69
2021/08/03 05:22:20;;;;;;;;;;;23.40;52.40;;;;;;492407;241;1212;-69
2021/08/03 05:24:25;;;;;;;;;;;23.50;52.40;;;;;;492429;241;2179;-69
2021/08/03 05:26:23;;;;;;;;;;;23.50;52.50;;;;;;492064;242;1426;-69
2021/08/03 05:28:26;;;;;;;;;;;23.40;52.40;;;;;;492423;241;1180;-69
2021/08/03 05:30:27;;;;;;;;;;;23.40;52.50;;;;;;492447;241;1088;-69
2021/08/03 05:32:28;;;;;;;;;;;23.40;52.60;;;;;;492517;241;1047;-69
2021/08/03 05:34:30;;;;;;;;;;;23.40;52.50;;;;;;492316;241;1112;-69
2021/08/03 05:36:31;;;;;;;;;;;23.40;52.40;;;;;;492471;241;1053;-69
2021/08/03 05:38:33;;;;;;;;;;;23.40;52.60;;;;;;492387;241;1061;-70
2021/08/03 05:40:34;;;;;;;;;;;23.40;52.70;;;;;;492393;241;1143;-70
2021/08/03 05:42:35;;;;;;;;;;;23.50;52.50;;;;;;492266;241;1144;-69
2021/08/03 05:44:37;;;;;;;;;;;23.50;52.60;;;;;;492323;241;2124;-69
2021/08/03 05:46:38;;;;;;;;;;;23.50;52.50;;;;;;492258;241;1083;-69
2021/08/03 05:48:39;;;;;;;;;;;23.50;52.50;;;;;;492333;241;1178;-69
2021/08/03 05:50:41;;;;;;;;;;;23.40;52.60;;;;;;492291;241;1102;-69
2021/08/03 05:52:42;;;;;;;;;;;23.40;52.70;;;;;;492237;241;1197;-69
2021/08/03 05:54:43;;;;;;;;;;;23.40;52.70;;;;;;492386;241;1047;-70
2021/08/03 05:56:44;;;;;;;;;;;23.40;52.80;;;;;;492298;241;1173;-69
2021/08/03 05:58:46;;;;;;;;;;;23.50;52.80;;;;;;492395;241;1136;-69
2021/08/03 06:00:47;;;;;;;;;;;23.40;52.90;;;;;;492274;241;1233;-70
2021/08/03 06:02:48;;;;;;;;;;;23.50;52.80;;;;;;492228;241;1182;-69
2021/08/03 06:04:50;;;;;;;;;;;23.50;53.00;;;;;;492221;241;2191;-69
2021/08/03 06:06:51;;;;;;;;;;;23.40;53.00;;;;;;492142;241;1173;-70
2021/08/03 06:08:52;;;;;;;;;;;23.50;53.00;;;;;;492357;241;1199;-69
2021/08/03 06:10:54;;;;;;;;;;;23.50;53.00;;;;;;492175;241;1567;-69
2021/08/03 06:12:55;;;;;;;;;;;23.50;53.00;;;;;;492247;241;1122;-69
2021/08/03 06:14:56;;;;;;;;;;;23.50;53.10;;;;;;492170;241;1136;-70
2021/08/03 06:16:58;;;;;;;;;;;23.60;53.00;;;;;;492175;241;1298;-69
2021/08/03 06:18:59;;;;;;;;;;;23.60;53.00;;;;;;492211;241;1171;-70
2021/08/03 06:21:00;;;;;;;;;;;23.50;53.10;;;;;;492203;241;1057;-69
2021/08/03 06:23:02;;;;;;;;;;;23.50;53.30;;;;;;492182;241;1200;-69
2021/08/03 06:25:03;;;;;;;;;;;23.50;53.40;;;;;;492154;241;2187;-69
2021/08/03 06:27:04;;;;;;;;;;;23.50;53.30;;;;;;492173;241;1173;-70
2021/08/03 06:29:06;;;;;;;;;;;23.50;53.30;;;;;;492125;241;1091;-70
2021/08/03 06:31:07;;;;;;;;;;;23.50;53.30;;;;;;491993;241;1042;-69
2021/08/03 06:33:08;;;;;;;;;;;23.50;53.50;;;;;;492107;241;1154;-69
2021/08/03 06:35:10;;;;;;;;;;;23.50;53.40;;;;;;492096;241;1264;-69
2021/08/03 06:37:11;;;;;;;;;;;23.50;53.60;;;;;;492000;241;1066;-70
2021/08/03 06:39:13;;;;;;;;;;;23.40;53.70;;;;;;491989;241;1086;-69
2021/08/03 06:41:14;;;;;;;;;;;23.50;53.60;;;;;;491929;241;1095;-70
2021/08/03 06:43:15;;;;;;;;;;;23.40;53.70;;;;;;491957;241;1138;-69
2021/08/03 06:45:17;;;;;;;;;;;23.40;53.80;;;;;;492046;241;2168;-69
2021/08/03 06:47:18;;;;;;;;;;;23.50;53.80;;;;;;491910;241;1069;-69
2021/08/03 06:49:19;;;;;;;;;;;23.50;53.70;;;;;;492093;241;1093;-69
2021/08/03 06:51:21;;;;;;;;;;;23.40;53.90;;;;;;492023;241;1072;-69
2021/08/03 06:53:22;;;;;;;;;;;23.40;54.00;;;;;;491857;241;1132;-70
2021/08/03 06:55:23;;;;;;;;;;;23.50;53.70;;;;;;492087;241;1141;-69
2021/08/03 06:57:25;;;;;;;;;;;23.50;53.80;;;;;;492046;241;1137;-70
2021/08/03 06:59:26;;;;;;;;;;;23.60;53.80;;;;;;492011;241;1169;-70
2021/08/03 07:01:27;;;;;;;;;;;23.50;53.90;;;;;;492027;241;1122;-69
2021/08/03 07:03:28;;;;;;;;;;;23.50;53.80;;;;;;492061;241;1168;-70
2021/08/03 07:05:30;;;;;;;;;;;23.50;54.00;;;;;;491962;241;2200;-70
2021/08/03 07:07:31;;;;;;;;;;;23.50;53.80;;;;;;491885;241;1058;-69
2021/08/03 07:09:32;;;;;;;;;;;23.50;53.90;;;;;;491880;241;1077;-70
2021/08/03 07:11:34;;;;;;;;;;;23.50;54.00;;;;;;491737;241;1141;-69
2021/08/03 07:13:35;;;;;;;;;;;23.50;54.00;;;;;;491939;241;1193;-69
2021/08/03 07:15:36;;;;;;;;;;;23.50;54.10;;;;;;491978;241;1088;-69
2021/08/03 07:17:38;;;;;;;;;;;23.60;54.00;;;;;;491772;241;1073;-70
2021/08/03 07:19:39;;;;;;;;;;;23.50;54.00;;;;;;491763;241;1092;-70
2021/08/03 07:21:40;;;;;;;;;;;23.50;54.00;;;;;;491763;241;1295;-70
2021/08/03 07:23:42;;;;;;;;;;;23.50;54.00;;;;;;491747;241;1368;-70
2021/08/03 07:25:43;;;;;;;;;;;23.60;54.00;;;;;;491921;241;2190;-70
2021/08/03 07:27:44;;;;;;;;;;;23.60;54.00;;;;;;491963;242;1093;-69
2021/08/03 07:29:46;;;;;;;;;;;23.50;54.20;;;;;;491881;241;1174;-69
2021/08/03 07:31:47;;;;;;;;;;;23.50;54.20;;;;;;491846;241;1200;-70
2021/08/03 07:33:48;;;;;;;;;;;23.50;54.20;;;;;;492037;241;1078;-70
2021/08/03 07:35:50;;;;;;;;;;;23.50;54.10;;;;;;491931;241;1299;-70
2021/08/03 07:37:51;;;;;;;;;;;23.50;54.30;;;;;;491991;241;1097;-69
2021/08/03 07:39:52;;;;;;;;;;;23.60;54.10;;;;;;492109;241;1089;-70
2021/08/03 07:41:55;;;;;;;;;;;23.50;54.00;;;;;;492055;241;1093;-70
2021/08/03 07:43:55;;;;;;;;;;;23.50;54.10;;;;;;492033;242;1306;-70
2021/08/03 07:45:56;;;;;;;;;;;23.60;54.10;;;;;;491939;241;2180;-70
2021/08/03 07:47:58;;;;;;;;;;;23.50;54.10;;;;;;492166;241;1229;-70
2021/08/03 07:49:59;;;;;;;;;;;23.60;53.90;;;;;;492241;241;1062;-70
2021/08/03 07:52:00;;;;;;;;;;;23.50;54.10;;;;;;492145;241;1156;-70
2021/08/03 07:54:02;;;;;;;;;;;23.50;53.90;;;;;;492233;241;1129;-69
2021/08/03 07:56:03;;;;;;;;;;;23.50;54.00;;;;;;492231;241;1053;-70
2021/08/03 07:58:04;;;;;;;;;;;23.60;54.00;;;;;;492281;241;1103;-70
2021/08/03 08:00:06;;;;;;;;;;;23.60;53.80;;;;;;492259;241;1186;-70
2021/08/03 08:02:07;;;;;;;;;;;23.60;53.70;;;;;;492146;241;1087;-69
2021/08/03 08:04:08;;;;;;;;;;;23.60;53.80;;;;;;492134;241;1116;-69
2021/08/03 08:06:10;;;;;;;;;;;23.50;53.90;;;;;;492150;241;2156;-69
2021/08/03 08:08:11;;;;;;;;;;;23.60;53.70;;;;;;492131;241;1246;-70
2021/08/03 08:10:12;;;;;;;;;;;23.60;53.70;;;;;;492218;241;1123;-69
2021/08/03 08:12:14;;;;;;;;;;;23.60;53.80;;;;;;492155;241;1065;-70
2021/08/03 08:14:15;;;;;;;;;;;23.60;53.70;;;;;;492027;241;1308;-70
2021/08/03 08:16:17;;;;;;;;;;;23.60;53.70;;;;;;491970;241;1118;-69
2021/08/03 08:18:18;;;;;;;;;;;23.60;53.60;;;;;;492049;241;1096;-70
2021/08/03 08:20:20;;;;;;;;;;;23.60;53.70;;;;;;493572;241;1068;-70
2021/08/03 08:22:31;;;;;;;;;;;23.60;53.70;;;;;;493806;241;1831;-70
2021/08/03 08:24:39;;;;;;;;;;;23.60;53.60;;;;;;493790;241;2132;-70
2021/08/03 08:26:51;;;;;;;;;;;23.60;53.50;;;;;;493809;241;1173;-70
2021/08/03 08:31:18;;;;;;;;;;;23.60;53.50;;;;;;493603;236;1518;-70
2021/08/03 08:33:21;;;;;;;;;;;23.60;53.70;;;;;;493849;237;1090;-70
2021/08/03 08:35:28;;;;;;;;;;;23.60;53.50;;;;;;493766;241;2040;-70
2021/08/03 08:37:32;;;;;;;;;;;23.60;53.70;;;;;;493720;236;1338;-70
2021/08/03 08:39:33;;;;;;;;;;;23.60;53.60;;;;;;493722;241;1027;-70
2021/08/03 08:41:52;;;;;;;;;;;23.70;53.50;;;;;;493850;236;1513;-70
2021/08/03 08:43:53;;;;;;;;;;;23.60;53.60;;;;;;493697;241;1338;-70
2021/08/03 08:46:00;;;;;;;;;;;23.50;53.70;;;;;;493480;242;2112;-70
2021/08/03 08:48:01;;;;;;;;;;;23.60;53.70;;;;;;493748;236;1211;-70
2021/08/03 08:50:05;;;;;;;;;;;23.60;53.60;;;;;;493619;241;1037;-70
2021/08/03 08:52:04;;;;;;;;;;;23.60;53.70;;;;;;493231;242;1537;-70
2021/08/03 08:54:05;;;;;;;;;;;23.60;53.70;;;;;;492994;241;1029;-70
2021/08/03 08:56:07;;;;;;;;;;;23.60;53.80;;;;;;493595;241;1108;-70
2021/08/03 08:58:08;;;;;;;;;;;23.50;53.80;;;;;;493370;241;998;-70
2021/08/03 09:00:09;;;;;;;;;;;23.40;54.00;;;;;;493292;241;1215;-70
2021/08/03 09:02:12;;;;;;;;;;;23.40;54.00;;;;;;493303;241;1132;-70
2021/08/03 09:04:12;;;;;;;;;;;23.50;54.00;;;;;;492916;241;1724;-70
2021/08/03 09:06:13;;;;;;;;;;;23.40;54.00;;;;;;493212;241;2171;-70
2021/08/03 09:08:15;;;;;;;;;;;23.40;53.90;;;;;;493178;241;1275;-70
2021/08/03 09:10:16;;;;;;;;;;;23.50;54.00;;;;;;492965;241;1069;-70
2021/08/03 09:12:17;;;;;;;;;;;23.50;54.00;;;;;;492954;241;1268;-70
2021/08/03 09:14:19;;;;;;;;;;;23.90;53.20;;;;;;493045;238;1336;-70
2021/08/03 09:16:20;;;;;;;;;;;23.80;53.10;;;;;;493342;241;1092;-70
2021/08/03 09:18:21;;;;;;;;;;;23.70;53.40;;;;;;493312;241;1071;-70
2021/08/03 09:20:23;;;;;;;;;;;23.80;53.30;;;;;;493274;241;1131;-70
2021/08/03 09:22:24;;;;;;;;;;;23.80;53.40;;;;;;493379;241;1221;-70
2021/08/03 09:24:25;;;;;;;;;;;23.70;53.60;;;;;;493229;241;1097;-70
2021/08/03 09:26:27;;;;;;;;;;;23.70;53.50;;;;;;493148;240;2183;-70
2021/08/03 09:28:28;;;;;;;;;;;23.70;53.60;;;;;;493322;241;1136;-70
2021/08/03 09:30:29;;;;;;;;;;;23.70;53.70;;;;;;493336;241;1607;-70
2021/08/03 09:32:31;;;;;;;;;;;23.60;53.80;;;;;;493338;241;1521;-70
2021/08/03 09:34:32;;;;;;;;;;;23.70;53.50;;;;;;493437;241;1090;-70
2021/08/03 09:36:33;;;;;;;;;;;23.70;53.70;;;;;;493243;241;1294;-70
2021/08/03 09:38:35;;;;;;;;;;;23.70;53.60;;;;;;493315;241;1048;-70
2021/08/03 09:40:36;;;;;;;;;;;23.80;53.40;;;;;;493400;241;1184;-70
2021/08/03 09:42:37;;;;;;;;;;;23.70;53.50;;;;;;493434;241;1112;-70
2021/08/03 09:44:39;;;;;;;;;;;23.70;53.60;;;;;;493496;241;1173;-70
2021/08/03 09:46:40;;;;;;;;;;;23.70;53.50;;;;;;493332;238;2167;-70
2021/08/03 09:48:41;;;;;;;;;;;23.80;53.30;;;;;;493409;241;1066;-70
2021/08/03 09:50:43;;;;;;;;;;;23.80;53.20;;;;;;493496;241;1401;-70
2021/08/03 09:52:47;;;;;;;;;;;23.80;53.40;;;;;;493341;241;1073;-70
2021/08/03 09:54:46;;;;;;;;;;;23.70;53.30;;;;;;493180;242;1446;-70
2021/08/03 09:56:47;;;;;;;;;;;23.80;53.20;;;;;;493171;241;1710;-70
2021/08/03 09:58:48;;;;;;;;;;;23.80;53.00;;;;;;493417;241;1144;-70
2021/08/03 10:00:50;;;;;;;;;;;23.80;53.20;;;;;;493242;241;1185;-70
2021/08/03 10:02:51;;;;;;;;;;;23.80;53.10;;;;;;493293;241;1082;-70
2021/08/03 10:04:53;;;;;;;;;;;23.90;52.80;;;;;;493386;241;2183;-70
2021/08/03 10:06:54;;;;;;;;;;;23.90;52.70;;;;;;493242;241;1120;-70
2021/08/03 10:08:55;;;;;;;;;;;23.90;52.50;;;;;;493199;241;1114;-70
2021/08/03 10:10:57;;;;;;;;;;;23.90;52.60;;;;;;493374;241;1187;-70
2021/08/03 10:12:58;;;;;;;;;;;23.90;52.40;;;;;;493373;241;1317;-70
2021/08/03 10:14:59;;;;;;;;;;;23.90;52.50;;;;;;493411;238;1378;-70
2021/08/03 10:17:00;;;;;;;;;;;23.80;52.60;;;;;;493326;241;1110;-70
2021/08/03 10:19:02;;;;;;;;;;;23.90;52.40;;;;;;493309;241;1098;-70
2021/08/03 10:21:03;;;;;;;;;;;23.80;52.30;;;;;;493290;241;1414;-70
2021/08/03 10:23:05;;;;;;;;;;;24.00;52.10;;;;;;493380;241;1367;-70
2021/08/03 10:25:09;;;;;;;;;;;23.80;52.10;;;;;;493454;242;2125;-70
2021/08/03 10:27:09;;;;;;;;;;;23.80;52.00;;;;;;493151;242;2041;-70
2021/08/03 10:29:10;;;;;;;;;;;23.90;52.10;;;;;;493352;241;1035;-70
2021/08/03 10:31:11;;;;;;;;;;;23.90;52.00;;;;;;493299;241;1279;-70
2021/08/03 10:33:13;;;;;;;;;;;23.90;52.00;;;;;;493265;241;1134;-70
2021/08/03 10:35:15;;;;;;;;;;;23.90;51.90;;;;;;493259;241;1094;-70
2021/08/03 10:37:16;;;;;;;;;;;23.90;51.90;;;;;;492947;242;2070;-70
2021/08/03 10:39:17;;;;;;;;;;;23.90;51.90;;;;;;493180;241;1084;-70
2021/08/03 10:41:18;;;;;;;;;;;23.90;51.80;;;;;;493258;241;1333;-70
2021/08/03 10:43:20;;;;;;;;;;;24.00;51.70;;;;;;493347;241;1079;-70
2021/08/03 10:45:21;;;;;;;;;;;23.90;51.80;;;;;;493290;241;2128;-70
2021/08/03 10:47:22;;;;;;;;;;;23.90;51.90;;;;;;492986;241;1213;-70
2021/08/03 10:49:23;;;;;;;;;;;23.90;51.80;;;;;;493006;241;1053;-70
2021/08/03 10:51:26;;;;;;;;;;;23.90;51.80;;;;;;493036;241;1221;-70
2021/08/03 10:53:26;;;;;;;;;;;23.90;51.80;;;;;;493027;241;1499;-70
2021/08/03 10:55:27;;;;;;;;;;;23.90;51.70;;;;;;493031;241;1192;-70
2021/08/03 10:57:29;;;;;;;;;;;24.00;51.40;;;;;;493266;241;1279;-70
2021/08/03 10:59:30;;;;;;;;;;;24.00;51.50;;;;;;493216;241;1099;-70
2021/08/03 11:01:31;;;;;;;;;;;23.90;51.70;;;;;;493038;241;1306;-70
2021/08/03 11:03:33;;;;;;;;;;;23.90;51.70;;;;;;493166;241;1060;-70
2021/08/03 11:05:34;;;;;;;;;;;24.00;51.60;;;;;;493121;241;2186;-70
2021/08/03 11:07:36;;;;;;;;;;;23.90;51.70;;;;;;493064;241;2197;-70
2021/08/03 11:09:37;;;;;;;;;;;24.00;51.70;;;;;;493378;241;2086;-70
2021/08/03 11:11:40;;;;;;;;;;;24.00;51.70;;;;;;493398;241;1137;-70
2021/08/03 11:13:41;;;;;;;;;;;23.90;51.90;;;;;;493461;241;1100;-70
2021/08/03 11:15:43;;;;;;;;;;;23.80;52.10;;;;;;493622;241;1198;-70
2021/08/03 11:17:44;;;;;;;;;;;23.80;52.20;;;;;;493594;241;1242;-70
2021/08/03 11:19:45;;;;;;;;;;;23.70;52.20;;;;;;493383;241;1051;-70
2021/08/03 11:21:47;;;;;;;;;;;23.70;52.30;;;;;;493558;241;1186;-70
2021/08/03 11:23:48;;;;;;;;;;;23.70;52.20;;;;;;493605;241;1038;-70
2021/08/03 11:25:49;;;;;;;;;;;23.70;52.30;;;;;;493113;241;2132;-70
2021/08/03 11:27:51;;;;;;;;;;;23.70;52.30;;;;;;493221;241;1126;-70
2021/08/03 11:29:52;;;;;;;;;;;23.70;52.40;;;;;;493263;241;1194;-70
2021/08/03 11:31:54;;;;;;;;;;;23.70;52.50;;;;;;493333;241;1210;-70
2021/08/03 11:33:55;;;;;;;;;;;23.70;52.30;;;;;;493457;241;1103;-70
2021/08/03 11:35:57;;;;;;;;;;;23.80;52.50;;;;;;493356;241;1331;-70
2021/08/03 11:37:58;;;;;;;;;;;23.80;52.50;;;;;;493260;242;1311;-70
2021/08/03 11:39:59;;;;;;;;;;;23.70;52.50;;;;;;493340;241;1285;-70
2021/08/03 11:42:00;;;;;;;;;;;23.70;52.60;;;;;;493363;241;1129;-70
2021/08/03 11:44:02;;;;;;;;;;;23.60;52.60;;;;;;493044;241;1532;-70
2021/08/03 11:46:04;;;;;;;;;;;23.70;52.60;;;;;;492623;241;2183;-70
2021/08/03 11:48:05;;;;;;;;;;;23.70;52.40;;;;;;492547;241;1170;-70
2021/08/03 11:50:07;;;;;;;;;;;23.60;52.50;;;;;;492634;241;1894;-70
2021/08/03 11:52:08;;;;;;;;;;;23.60;52.50;;;;;;492354;241;1094;-70
2021/08/03 11:54:09;;;;;;;;;;;23.70;52.60;;;;;;492663;241;1078;-70
2021/08/03 11:56:10;;;;;;;;;;;23.60;52.50;;;;;;492580;241;1319;-70
2021/08/03 11:58:12;;;;;;;;;;;23.60;52.50;;;;;;492633;241;1133;-70
2021/08/03 12:00:13;;;;;;;;;;;23.50;52.70;;;;;;492618;241;1061;-70